sensor_id;sensor_type;location;lat;lon;timestamp;temperature;humidity
3713;DHT22;1872;51.406;6.856;2022-12-05T00:00:17;3.10;99.90
3713;DHT22;1872;51.406;6.856;2022-12-05T00:02:43;3.00;99.90
3713;DHT22;1872;51.406;6.856;2022-12-05T00:05:10;3.00;99.90
3713;DHT22;1872;51.406;6.856;2022-12-05T00:07:36;3.00;99.90
3713;DHT22;1872;51.406;6.856;2022-12-05T00:10:02;3.00;99.90
3713;DHT22;1872;51.406;6.856;2022-12-05T00:12:28;3.10;99.90
3713;DHT22;1872;51.406;6.856;2022-12-05T00:14:53;3.10;99.90
3713;DHT22;1872;51.406;6.856;2022-12-05T00:17:19;3.20;99.90
3713;DHT22;1872;51.406;6.856;2022-12-05T00:19:44;3.20;99.90
3713;DHT22;1872;51.406;6.856;2022-12-05T00:22:10;3.20;99.90
3713;DHT22;1872;51.406;6.856;2022-12-05T00:24:36;3.20;99.90
3713;DHT22;1872;51.406;6.856;2022-12-05T00:27:01;3.20;99.90
3713;DHT22;1872;51.406;6.856;2022-12-05T00:29:27;3.20;99.90
3713;DHT22;1872;51.406;6.856;2022-12-05T00:31:52;3.10;99.90
3713;DHT22;1872;51.406;6.856;2022-12-05T00:34:18;3.20;99.90
3713;DHT22;1872;51.406;6.856;2022-12-05T00:36:44;3.20;99.90
3713;DHT22;1872;51.406;6.856;2022-12-05T00:39:10;3.20;99.90
3713;DHT22;1872;51.406;6.856;2022-12-05T00:41:38;3.20;99.90
3713;DHT22;1872;51.406;6.856;2022-12-05T00:44:05;3.20;99.90
3713;DHT22;1872;51.406;6.856;2022-12-05T00:46:32;3.20;99.90
3713;DHT22;1872;51.406;6.856;2022-12-05T00:49:00;3.20;99.90
3713;DHT22;1872;51.406;6.856;2022-12-05T00:51:31;3.20;99.90
3713;DHT22;1872;51.406;6.856;2022-12-05T00:53:59;3.20;99.90
3713;DHT22;1872;51.406;6.856;2022-12-05T00:56:27;3.20;99.90
3713;DHT22;1872;51.406;6.856;2022-12-05T00:58:54;3.20;99.90
3713;DHT22;1872;51.406;6.856;2022-12-05T01:01:21;3.20;99.90
3713;DHT22;1872;51.406;6.856;2022-12-05T01:03:49;3.20;99.90
3713;DHT22;1872;51.406;6.856;2022-12-05T01:06:16;3.20;99.90
3713;DHT22;1872;51.406;6.856;2022-12-05T01:08:42;3.20;99.90
3713;DHT22;1872;51.406;6.856;2022-12-05T01:11:09;3.10;99.90
3713;DHT22;1872;51.406;6.856;2022-12-05T01:13:35;3.20;99.90
3713;DHT22;1872;51.406;6.856;2022-12-05T01:16:01;3.20;99.90
3713;DHT22;1872;51.406;6.856;2022-12-05T01:18:28;3.20;99.90
3713;DHT22;1872;51.406;6.856;2022-12-05T01:20:54;3.20;99.90
3713;DHT22;1872;51.406;6.856;2022-12-05T01:23:20;3.20;99.90
3713;DHT22;1872;51.406;6.856;2022-12-05T01:25:49;3.20;99.90
3713;DHT22;1872;51.406;6.856;2022-12-05T01:28:16;3.20;99.90
3713;DHT22;1872;51.406;6.856;2022-12-05T01:30:44;3.20;99.90
3713;DHT22;1872;51.406;6.856;2022-12-05T01:33:10;3.20;99.90
3713;DHT22;1872;51.406;6.856;2022-12-05T01:35:38;3.20;99.90
3713;DHT22;1872;51.406;6.856;2022-12-05T01:38:05;3.30;99.90
3713;DHT22;1872;51.406;6.856;2022-12-05T01:40:32;3.30;99.90
3713;DHT22;1872;51.406;6.856;2022-12-05T01:42:58;3.20;99.90
3713;DHT22;1872;51.406;6.856;2022-12-05T01:45:39;3.30;99.90
3713;DHT22;1872;51.406;6.856;2022-12-05T01:48:12;3.30;99.90
3713;DHT22;1872;51.406;6.856;2022-12-05T01:50:39;3.30;99.90
3713;DHT22;1872;51.406;6.856;2022-12-05T01:53:05;3.30;99.90
3713;DHT22;1872;51.406;6.856;2022-12-05T01:55:31;3.30;99.90
3713;DHT22;1872;51.406;6.856;2022-12-05T01:57:59;3.40;99.90
3713;DHT22;1872;51.406;6.856;2022-12-05T02:00:26;3.30;99.90
3713;DHT22;1872;51.406;6.856;2022-12-05T02:02:55;3.30;99.90
3713;DHT22;1872;51.406;6.856;2022-12-05T02:05:34;3.30;99.90
3713;DHT22;1872;51.406;6.856;2022-12-05T02:08:07;3.30;99.90
3713;DHT22;1872;51.406;6.856;2022-12-05T02:10:54;3.20;99.90
3713;DHT22;1872;51.406;6.856;2022-12-05T02:21:54;3.30;99.90
3713;DHT22;1872;51.406;6.856;2022-12-05T02:27:15;3.30;99.90
3713;DHT22;1872;51.406;6.856;2022-12-05T02:35:15;3.20;99.90
3713;DHT22;1872;51.406;6.856;2022-12-05T02:40:50;3.20;99.90
3713;DHT22;1872;51.406;6.856;2022-12-05T02:43:35;3.20;99.90
3713;DHT22;1872;51.406;6.856;2022-12-05T02:46:07;3.20;99.90
3713;DHT22;1872;51.406;6.856;2022-12-05T02:48:34;3.20;99.90
3713;DHT22;1872;51.406;6.856;2022-12-05T02:51:03;3.20;99.90
3713;DHT22;1872;51.406;6.856;2022-12-05T02:53:30;3.20;99.90
3713;DHT22;1872;51.406;6.856;2022-12-05T02:55:56;3.20;99.90
3713;DHT22;1872;51.406;6.856;2022-12-05T02:58:31;3.20;99.90
3713;DHT22;1872;51.406;6.856;2022-12-05T03:00:58;3.20;99.90
3713;DHT22;1872;51.406;6.856;2022-12-05T03:03:24;3.20;99.90
3713;DHT22;1872;51.406;6.856;2022-12-05T03:08:22;3.20;99.90
3713;DHT22;1872;51.406;6.856;2022-12-05T03:10:50;3.20;99.90
3713;DHT22;1872;51.406;6.856;2022-12-05T03:13:26;3.20;99.90
3713;DHT22;1872;51.406;6.856;2022-12-05T03:16:05;3.20;99.90
3713;DHT22;1872;51.406;6.856;2022-12-05T03:18:37;3.10;99.90
3713;DHT22;1872;51.406;6.856;2022-12-05T03:24:18;3.10;99.90
3713;DHT22;1872;51.406;6.856;2022-12-05T03:29:24;3.20;99.90
3713;DHT22;1872;51.406;6.856;2022-12-05T03:32:06;3.20;99.90
3713;DHT22;1872;51.406;6.856;2022-12-05T03:37:06;3.20;99.90
3713;DHT22;1872;51.406;6.856;2022-12-05T03:39:37;3.10;99.90
3713;DHT22;1872;51.406;6.856;2022-12-05T03:42:17;3.10;99.90
3713;DHT22;1872;51.406;6.856;2022-12-05T03:44:53;3.10;99.90
3713;DHT22;1872;51.406;6.856;2022-12-05T03:47:49;3.00;99.90
3713;DHT22;1872;51.406;6.856;2022-12-05T03:50:26;3.00;99.90
3713;DHT22;1872;51.406;6.856;2022-12-05T03:53:06;3.00;99.90
3713;DHT22;1872;51.406;6.856;2022-12-05T03:55:34;3.00;99.90
3713;DHT22;1872;51.406;6.856;2022-12-05T03:58:07;3.10;99.90
3713;DHT22;1872;51.406;6.856;2022-12-05T04:00:40;3.10;99.90
3713;DHT22;1872;51.406;6.856;2022-12-05T04:03:17;3.10;99.90
3713;DHT22;1872;51.406;6.856;2022-12-05T04:05:57;3.10;99.90
3713;DHT22;1872;51.406;6.856;2022-12-05T04:08:31;3.10;99.90
3713;DHT22;1872;51.406;6.856;2022-12-05T04:11:02;3.10;99.90
3713;DHT22;1872;51.406;6.856;2022-12-05T04:13:37;3.10;99.90
3713;DHT22;1872;51.406;6.856;2022-12-05T04:16:10;3.20;99.90
3713;DHT22;1872;51.406;6.856;2022-12-05T04:19:14;3.20;99.90
3713;DHT22;1872;51.406;6.856;2022-12-05T04:21:46;3.20;99.90
3713;DHT22;1872;51.406;6.856;2022-12-05T04:24:25;3.20;99.90
3713;DHT22;1872;51.406;6.856;2022-12-05T04:27:37;3.20;99.90
3713;DHT22;1872;51.406;6.856;2022-12-05T04:30:18;3.20;99.90
3713;DHT22;1872;51.406;6.856;2022-12-05T04:33:10;3.20;99.90
3713;DHT22;1872;51.406;6.856;2022-12-05T04:35:42;3.20;99.90
3713;DHT22;1872;51.406;6.856;2022-12-05T04:38:14;3.20;99.90
3713;DHT22;1872;51.406;6.856;2022-12-05T04:40:46;3.20;99.90
3713;DHT22;1872;51.406;6.856;2022-12-05T04:43:14;3.20;99.90
3713;DHT22;1872;51.406;6.856;2022-12-05T04:45:40;3.20;99.90
3713;DHT22;1872;51.406;6.856;2022-12-05T04:48:13;3.20;99.90
3713;DHT22;1872;51.406;6.856;2022-12-05T04:50:40;3.20;99.90
3713;DHT22;1872;51.406;6.856;2022-12-05T04:53:08;3.20;99.90
3713;DHT22;1872;51.406;6.856;2022-12-05T04:55:36;3.20;99.90
3713;DHT22;1872;51.406;6.856;2022-12-05T04:58:09;3.20;99.90
3713;DHT22;1872;51.406;6.856;2022-12-05T05:01:06;3.20;99.90
3713;DHT22;1872;51.406;6.856;2022-12-05T05:03:43;3.20;99.90
3713;DHT22;1872;51.406;6.856;2022-12-05T05:06:11;3.20;99.90
3713;DHT22;1872;51.406;6.856;2022-12-05T05:08:49;3.20;99.90
3713;DHT22;1872;51.406;6.856;2022-12-05T05:11:26;3.20;99.90
3713;DHT22;1872;51.406;6.856;2022-12-05T05:13:53;3.20;99.90
3713;DHT22;1872;51.406;6.856;2022-12-05T05:16:24;3.10;99.90
3713;DHT22;1872;51.406;6.856;2022-12-05T05:18:51;3.10;99.90
3713;DHT22;1872;51.406;6.856;2022-12-05T05:23:45;3.20;99.90
3713;DHT22;1872;51.406;6.856;2022-12-05T05:26:12;3.20;99.90
3713;DHT22;1872;51.406;6.856;2022-12-05T05:28:38;3.20;99.90
3713;DHT22;1872;51.406;6.856;2022-12-05T05:31:04;3.20;99.90
3713;DHT22;1872;51.406;6.856;2022-12-05T05:33:31;3.20;99.90
3713;DHT22;1872;51.406;6.856;2022-12-05T05:35:56;3.10;99.90
3713;DHT22;1872;51.406;6.856;2022-12-05T05:38:25;3.10;99.90
3713;DHT22;1872;51.406;6.856;2022-12-05T05:40:51;3.10;99.90
3713;DHT22;1872;51.406;6.856;2022-12-05T05:43:17;3.00;99.90
3713;DHT22;1872;51.406;6.856;2022-12-05T05:45:42;3.00;99.90
3713;DHT22;1872;51.406;6.856;2022-12-05T05:48:08;3.00;99.90
3713;DHT22;1872;51.406;6.856;2022-12-05T05:50:34;3.00;99.90
3713;DHT22;1872;51.406;6.856;2022-12-05T05:52:59;3.00;99.90
3713;DHT22;1872;51.406;6.856;2022-12-05T05:55:25;3.00;99.90
3713;DHT22;1872;51.406;6.856;2022-12-05T05:57:51;3.00;99.90
3713;DHT22;1872;51.406;6.856;2022-12-05T06:00:17;3.00;99.90
3713;DHT22;1872;51.406;6.856;2022-12-05T06:02:43;3.00;99.90
3713;DHT22;1872;51.406;6.856;2022-12-05T06:05:09;3.10;99.90
3713;DHT22;1872;51.406;6.856;2022-12-05T06:07:34;3.10;99.90
3713;DHT22;1872;51.406;6.856;2022-12-05T06:10:00;3.10;99.90
3713;DHT22;1872;51.406;6.856;2022-12-05T06:12:25;3.10;99.90
3713;DHT22;1872;51.406;6.856;2022-12-05T06:14:51;3.10;99.90
3713;DHT22;1872;51.406;6.856;2022-12-05T06:17:17;3.00;99.90
3713;DHT22;1872;51.406;6.856;2022-12-05T06:19:43;3.00;99.90
3713;DHT22;1872;51.406;6.856;2022-12-05T06:22:08;3.00;99.90
3713;DHT22;1872;51.406;6.856;2022-12-05T06:24:34;3.00;99.90
3713;DHT22;1872;51.406;6.856;2022-12-05T06:27:00;3.00;99.90
3713;DHT22;1872;51.406;6.856;2022-12-05T06:29:25;3.00;99.90
3713;DHT22;1872;51.406;6.856;2022-12-05T06:31:51;2.90;99.90
3713;DHT22;1872;51.406;6.856;2022-12-05T06:34:16;2.90;99.90
3713;DHT22;1872;51.406;6.856;2022-12-05T06:36:42;2.90;99.90
3713;DHT22;1872;51.406;6.856;2022-12-05T06:39:07;2.90;99.90
3713;DHT22;1872;51.406;6.856;2022-12-05T06:41:33;2.80;99.90
3713;DHT22;1872;51.406;6.856;2022-12-05T06:43:59;2.80;99.90
3713;DHT22;1872;51.406;6.856;2022-12-05T06:46:25;2.80;99.90
3713;DHT22;1872;51.406;6.856;2022-12-05T06:48:55;2.70;99.90
3713;DHT22;1872;51.406;6.856;2022-12-05T06:51:22;2.70;99.90
3713;DHT22;1872;51.406;6.856;2022-12-05T06:53:48;2.70;99.90
3713;DHT22;1872;51.406;6.856;2022-12-05T06:56:17;2.70;99.90
3713;DHT22;1872;51.406;6.856;2022-12-05T06:58:46;2.70;99.90
3713;DHT22;1872;51.406;6.856;2022-12-05T07:01:13;2.70;99.90
3713;DHT22;1872;51.406;6.856;2022-12-05T07:03:58;2.70;99.90
3713;DHT22;1872;51.406;6.856;2022-12-05T07:06:24;2.80;99.90
3713;DHT22;1872;51.406;6.856;2022-12-05T07:08:50;2.80;99.90
3713;DHT22;1872;51.406;6.856;2022-12-05T07:11:15;2.80;99.90
3713;DHT22;1872;51.406;6.856;2022-12-05T07:13:41;2.80;99.90
3713;DHT22;1872;51.406;6.856;2022-12-05T07:16:07;2.80;99.90
3713;DHT22;1872;51.406;6.856;2022-12-05T07:18:33;2.80;99.90
3713;DHT22;1872;51.406;6.856;2022-12-05T07:21:01;2.80;99.90
3713;DHT22;1872;51.406;6.856;2022-12-05T07:23:27;2.90;99.90
3713;DHT22;1872;51.406;6.856;2022-12-05T07:25:53;2.90;99.90
3713;DHT22;1872;51.406;6.856;2022-12-05T07:28:19;2.80;99.90
3713;DHT22;1872;51.406;6.856;2022-12-05T07:30:45;2.80;99.90
3713;DHT22;1872;51.406;6.856;2022-12-05T07:33:11;2.80;99.90
3713;DHT22;1872;51.406;6.856;2022-12-05T07:35:36;2.80;99.90
3713;DHT22;1872;51.406;6.856;2022-12-05T07:38:02;2.80;99.90
3713;DHT22;1872;51.406;6.856;2022-12-05T07:40:28;2.80;99.90
3713;DHT22;1872;51.406;6.856;2022-12-05T07:42:54;2.80;99.90
3713;DHT22;1872;51.406;6.856;2022-12-05T07:45:20;2.80;99.90
3713;DHT22;1872;51.406;6.856;2022-12-05T07:47:46;2.80;99.90
3713;DHT22;1872;51.406;6.856;2022-12-05T07:50:12;2.80;99.90
3713;DHT22;1872;51.406;6.856;2022-12-05T07:52:38;2.80;99.90
3713;DHT22;1872;51.406;6.856;2022-12-05T07:55:04;2.90;99.90
3713;DHT22;1872;51.406;6.856;2022-12-05T07:57:30;2.90;99.90
3713;DHT22;1872;51.406;6.856;2022-12-05T07:59:56;2.90;99.90
3713;DHT22;1872;51.406;6.856;2022-12-05T08:02:22;2.90;99.90
3713;DHT22;1872;51.406;6.856;2022-12-05T08:04:47;2.80;99.90
3713;DHT22;1872;51.406;6.856;2022-12-05T08:07:13;2.80;99.90
3713;DHT22;1872;51.406;6.856;2022-12-05T08:09:39;2.80;99.90
3713;DHT22;1872;51.406;6.856;2022-12-05T08:12:05;2.80;99.90
3713;DHT22;1872;51.406;6.856;2022-12-05T08:14:30;2.80;99.90
3713;DHT22;1872;51.406;6.856;2022-12-05T08:16:56;2.80;99.90
3713;DHT22;1872;51.406;6.856;2022-12-05T08:19:22;2.70;99.90
3713;DHT22;1872;51.406;6.856;2022-12-05T08:21:47;2.70;99.90
3713;DHT22;1872;51.406;6.856;2022-12-05T08:24:13;2.70;99.90
3713;DHT22;1872;51.406;6.856;2022-12-05T08:26:39;2.70;99.90
3713;DHT22;1872;51.406;6.856;2022-12-05T08:29:09;2.70;99.90
3713;DHT22;1872;51.406;6.856;2022-12-05T08:31:39;2.70;99.90
3713;DHT22;1872;51.406;6.856;2022-12-05T08:34:06;2.70;99.90
3713;DHT22;1872;51.406;6.856;2022-12-05T08:36:32;2.70;99.90
3713;DHT22;1872;51.406;6.856;2022-12-05T08:38:59;2.70;99.90
3713;DHT22;1872;51.406;6.856;2022-12-05T08:41:26;2.70;99.90
3713;DHT22;1872;51.406;6.856;2022-12-05T08:43:56;2.70;99.90
3713;DHT22;1872;51.406;6.856;2022-12-05T08:46:22;2.80;99.90
3713;DHT22;1872;51.406;6.856;2022-12-05T08:48:48;2.80;99.90
3713;DHT22;1872;51.406;6.856;2022-12-05T08:51:13;2.80;99.90
3713;DHT22;1872;51.406;6.856;2022-12-05T08:53:40;2.80;99.90
3713;DHT22;1872;51.406;6.856;2022-12-05T08:56:06;2.70;99.90
3713;DHT22;1872;51.406;6.856;2022-12-05T08:58:33;2.60;99.90
3713;DHT22;1872;51.406;6.856;2022-12-05T09:01:07;2.60;99.90
3713;DHT22;1872;51.406;6.856;2022-12-05T09:03:34;2.60;99.90
3713;DHT22;1872;51.406;6.856;2022-12-05T09:06:12;2.50;99.90
3713;DHT22;1872;51.406;6.856;2022-12-05T09:08:39;2.50;99.90
3713;DHT22;1872;51.406;6.856;2022-12-05T09:11:06;2.60;99.90
3713;DHT22;1872;51.406;6.856;2022-12-05T09:13:32;2.60;99.90
3713;DHT22;1872;51.406;6.856;2022-12-05T09:15:58;2.60;99.90
3713;DHT22;1872;51.406;6.856;2022-12-05T09:18:23;2.60;99.90
3713;DHT22;1872;51.406;6.856;2022-12-05T09:20:49;2.60;99.90
3713;DHT22;1872;51.406;6.856;2022-12-05T09:23:15;2.70;99.90
3713;DHT22;1872;51.406;6.856;2022-12-05T09:25:41;2.70;99.90
3713;DHT22;1872;51.406;6.856;2022-12-05T09:28:07;2.70;99.90
3713;DHT22;1872;51.406;6.856;2022-12-05T09:30:33;2.70;99.90
3713;DHT22;1872;51.406;6.856;2022-12-05T09:32:58;2.70;99.90
3713;DHT22;1872;51.406;6.856;2022-12-05T09:35:24;2.80;99.90
3713;DHT22;1872;51.406;6.856;2022-12-05T09:37:50;2.80;99.90
3713;DHT22;1872;51.406;6.856;2022-12-05T09:40:18;2.80;99.90
3713;DHT22;1872;51.406;6.856;2022-12-05T09:42:57;2.90;99.90
3713;DHT22;1872;51.406;6.856;2022-12-05T09:45:39;2.90;99.90
3713;DHT22;1872;51.406;6.856;2022-12-05T09:48:13;2.90;99.90
3713;DHT22;1872;51.406;6.856;2022-12-05T09:50:45;2.90;99.90
3713;DHT22;1872;51.406;6.856;2022-12-05T09:53:31;2.90;99.90
3713;DHT22;1872;51.406;6.856;2022-12-05T09:56:04;2.90;99.90
3713;DHT22;1872;51.406;6.856;2022-12-05T09:58:50;2.90;99.90
3713;DHT22;1872;51.406;6.856;2022-12-05T10:04:04;3.10;99.90
3713;DHT22;1872;51.406;6.856;2022-12-05T10:17:37;3.20;99.90
3713;DHT22;1872;51.406;6.856;2022-12-05T10:20:34;3.30;99.90
3713;DHT22;1872;51.406;6.856;2022-12-05T10:23:43;3.30;99.90
3713;DHT22;1872;51.406;6.856;2022-12-05T10:25:56;3.30;99.90
3713;DHT22;1872;51.406;6.856;2022-12-05T10:31:17;3.30;99.90
3713;DHT22;1872;51.406;6.856;2022-12-05T10:33:48;3.40;99.90
3713;DHT22;1872;51.406;6.856;2022-12-05T10:36:16;3.40;99.90
3713;DHT22;1872;51.406;6.856;2022-12-05T10:38:42;3.40;99.90
3713;DHT22;1872;51.406;6.856;2022-12-05T10:41:12;3.40;99.90
3713;DHT22;1872;51.406;6.856;2022-12-05T10:43:44;3.40;99.90
3713;DHT22;1872;51.406;6.856;2022-12-05T10:46:11;3.40;99.90
3713;DHT22;1872;51.406;6.856;2022-12-05T10:48:39;3.40;99.90
3713;DHT22;1872;51.406;6.856;2022-12-05T10:51:10;3.40;99.90
3713;DHT22;1872;51.406;6.856;2022-12-05T10:53:46;3.40;99.90
3713;DHT22;1872;51.406;6.856;2022-12-05T10:56:44;3.40;99.90
3713;DHT22;1872;51.406;6.856;2022-12-05T10:59:16;3.40;99.90
3713;DHT22;1872;51.406;6.856;2022-12-05T11:01:51;3.40;99.90
3713;DHT22;1872;51.406;6.856;2022-12-05T11:04:40;3.40;99.90
3713;DHT22;1872;51.406;6.856;2022-12-05T11:10:39;3.30;99.90
3713;DHT22;1872;51.406;6.856;2022-12-05T11:13:24;3.30;99.90
3713;DHT22;1872;51.406;6.856;2022-12-05T11:15:50;3.30;99.90
3713;DHT22;1872;51.406;6.856;2022-12-05T11:18:32;3.30;99.90
3713;DHT22;1872;51.406;6.856;2022-12-05T11:21:12;3.30;99.90
3713;DHT22;1872;51.406;6.856;2022-12-05T11:23:39;3.20;99.90
3713;DHT22;1872;51.406;6.856;2022-12-05T11:26:31;3.20;99.90
3713;DHT22;1872;51.406;6.856;2022-12-05T11:28:58;3.20;99.90
3713;DHT22;1872;51.406;6.856;2022-12-05T11:31:29;3.20;99.90
3713;DHT22;1872;51.406;6.856;2022-12-05T11:36:43;3.20;99.90
3713;DHT22;1872;51.406;6.856;2022-12-05T11:39:11;3.20;99.90
3713;DHT22;1872;51.406;6.856;2022-12-05T11:44:44;3.20;99.90
3713;DHT22;1872;51.406;6.856;2022-12-05T11:50:23;3.10;99.90
3713;DHT22;1872;51.406;6.856;2022-12-05T11:58:40;3.10;99.90
3713;DHT22;1872;51.406;6.856;2022-12-05T12:09:32;3.10;99.90
3713;DHT22;1872;51.406;6.856;2022-12-05T12:12:11;3.10;99.90
3713;DHT22;1872;51.406;6.856;2022-12-05T12:15:06;3.10;99.90
3713;DHT22;1872;51.406;6.856;2022-12-05T12:17:47;3.10;99.90
3713;DHT22;1872;51.406;6.856;2022-12-05T12:26:03;3.00;99.90
3713;DHT22;1872;51.406;6.856;2022-12-05T12:29:00;3.00;99.90
3713;DHT22;1872;51.406;6.856;2022-12-05T12:39:37;3.00;99.90
3713;DHT22;1872;51.406;6.856;2022-12-05T12:47:23;2.90;99.90
3713;DHT22;1872;51.406;6.856;2022-12-05T12:55:43;2.90;99.90
3713;DHT22;1872;51.406;6.856;2022-12-05T13:03:21;2.80;99.90
3713;DHT22;1872;51.406;6.856;2022-12-05T13:05:59;2.90;99.90
3713;DHT22;1872;51.406;6.856;2022-12-05T13:10:58;2.90;99.90
3713;DHT22;1872;51.406;6.856;2022-12-05T13:13:43;2.80;99.90
3713;DHT22;1872;51.406;6.856;2022-12-05T13:16:26;2.90;99.90
3713;DHT22;1872;51.406;6.856;2022-12-05T13:18:54;2.90;99.90
3713;DHT22;1872;51.406;6.856;2022-12-05T13:21:21;2.90;99.90
3713;DHT22;1872;51.406;6.856;2022-12-05T13:23:52;2.90;99.90
3713;DHT22;1872;51.406;6.856;2022-12-05T13:26:21;2.90;99.90
3713;DHT22;1872;51.406;6.856;2022-12-05T13:29:02;2.90;99.90
3713;DHT22;1872;51.406;6.856;2022-12-05T13:31:45;2.80;99.90
3713;DHT22;1872;51.406;6.856;2022-12-05T13:37:08;2.80;99.90
3713;DHT22;1872;51.406;6.856;2022-12-05T13:39:55;2.80;99.90
3713;DHT22;1872;51.406;6.856;2022-12-05T13:42:40;2.70;99.90
3713;DHT22;1872;51.406;6.856;2022-12-05T13:45:09;2.70;99.90
3713;DHT22;1872;51.406;6.856;2022-12-05T13:53:04;2.70;99.90
3713;DHT22;1872;51.406;6.856;2022-12-05T13:55:36;2.70;99.90
3713;DHT22;1872;51.406;6.856;2022-12-05T14:00:49;2.60;99.90
3713;DHT22;1872;51.406;6.856;2022-12-05T14:03:52;2.60;99.90
3713;DHT22;1872;51.406;6.856;2022-12-05T14:06:03;2.60;99.90
3713;DHT22;1872;51.406;6.856;2022-12-05T14:19:20;2.50;99.90
3713;DHT22;1872;51.406;6.856;2022-12-05T14:22:00;2.40;99.90
3713;DHT22;1872;51.406;6.856;2022-12-05T14:24:41;2.40;99.90
3713;DHT22;1872;51.406;6.856;2022-12-05T14:32:58;2.30;99.90
3713;DHT22;1872;51.406;6.856;2022-12-05T14:35:29;2.30;99.90
3713;DHT22;1872;51.406;6.856;2022-12-05T14:37:59;2.20;99.90
3713;DHT22;1872;51.406;6.856;2022-12-05T14:40:53;2.20;99.90
3713;DHT22;1872;51.406;6.856;2022-12-05T14:43:33;2.20;99.90
3713;DHT22;1872;51.406;6.856;2022-12-05T14:46:02;2.20;99.90
3713;DHT22;1872;51.406;6.856;2022-12-05T14:54:17;2.10;99.90
3713;DHT22;1872;51.406;6.856;2022-12-05T15:02:18;2.10;99.90
3713;DHT22;1872;51.406;6.856;2022-12-05T15:04:55;2.10;99.90
3713;DHT22;1872;51.406;6.856;2022-12-05T15:07:30;2.10;99.90
3713;DHT22;1872;51.406;6.856;2022-12-05T15:10:16;2.10;99.90
3713;DHT22;1872;51.406;6.856;2022-12-05T15:12:50;2.00;99.90
3713;DHT22;1872;51.406;6.856;2022-12-05T15:16:05;2.00;99.90
3713;DHT22;1872;51.406;6.856;2022-12-05T15:21:51;2.00;99.90
3713;DHT22;1872;51.406;6.856;2022-12-05T15:24:02;2.00;99.90
3713;DHT22;1872;51.406;6.856;2022-12-05T15:26:40;2.00;99.90
3713;DHT22;1872;51.406;6.856;2022-12-05T15:31:56;2.00;99.90
3713;DHT22;1872;51.406;6.856;2022-12-05T15:40:11;2.00;99.90
3713;DHT22;1872;51.406;6.856;2022-12-05T15:52:49;2.00;99.90
3713;DHT22;1872;51.406;6.856;2022-12-05T15:58:03;2.00;99.90
3713;DHT22;1872;51.406;6.856;2022-12-05T16:00:33;2.00;99.90
3713;DHT22;1872;51.406;6.856;2022-12-05T16:03:18;2.00;99.90
3713;DHT22;1872;51.406;6.856;2022-12-05T16:05:51;2.00;99.90
3713;DHT22;1872;51.406;6.856;2022-12-05T16:08:20;1.90;99.90
3713;DHT22;1872;51.406;6.856;2022-12-05T16:14:11;2.00;99.90
3713;DHT22;1872;51.406;6.856;2022-12-05T16:16:37;2.00;99.90
3713;DHT22;1872;51.406;6.856;2022-12-05T16:19:11;2.00;99.90
3713;DHT22;1872;51.406;6.856;2022-12-05T16:21:42;2.00;99.90
3713;DHT22;1872;51.406;6.856;2022-12-05T16:24:27;1.90;99.90
3713;DHT22;1872;51.406;6.856;2022-12-05T16:27:03;2.00;99.90
3713;DHT22;1872;51.406;6.856;2022-12-05T16:29:34;2.00;99.90
3713;DHT22;1872;51.406;6.856;2022-12-05T16:32:02;2.00;99.90
3713;DHT22;1872;51.406;6.856;2022-12-05T16:34:31;1.90;99.90
3713;DHT22;1872;51.406;6.856;2022-12-05T16:36:58;1.90;99.90
3713;DHT22;1872;51.406;6.856;2022-12-05T16:39:25;1.90;99.90
3713;DHT22;1872;51.406;6.856;2022-12-05T16:41:53;1.90;99.90
3713;DHT22;1872;51.406;6.856;2022-12-05T16:45:09;1.90;99.90
3713;DHT22;1872;51.406;6.856;2022-12-05T16:50:28;1.90;99.90
3713;DHT22;1872;51.406;6.856;2022-12-05T16:53:10;1.90;99.90
3713;DHT22;1872;51.406;6.856;2022-12-05T16:55:38;1.90;99.90
3713;DHT22;1872;51.406;6.856;2022-12-05T16:58:10;1.90;99.90
3713;DHT22;1872;51.406;6.856;2022-12-05T17:00:36;1.90;99.90
3713;DHT22;1872;51.406;6.856;2022-12-05T17:03:02;1.90;99.90
3713;DHT22;1872;51.406;6.856;2022-12-05T17:05:28;1.90;99.90
3713;DHT22;1872;51.406;6.856;2022-12-05T17:07:54;1.90;99.90
3713;DHT22;1872;51.406;6.856;2022-12-05T17:10:20;1.90;99.90
3713;DHT22;1872;51.406;6.856;2022-12-05T17:12:46;1.90;99.90
3713;DHT22;1872;51.406;6.856;2022-12-05T17:15:21;1.90;99.90
3713;DHT22;1872;51.406;6.856;2022-12-05T17:17:47;1.80;99.90
3713;DHT22;1872;51.406;6.856;2022-12-05T17:20:12;1.80;99.90
3713;DHT22;1872;51.406;6.856;2022-12-05T17:22:39;1.80;99.90
3713;DHT22;1872;51.406;6.856;2022-12-05T17:27:41;1.90;99.90
3713;DHT22;1872;51.406;6.856;2022-12-05T17:30:07;1.90;99.90
3713;DHT22;1872;51.406;6.856;2022-12-05T17:32:33;1.90;99.90
3713;DHT22;1872;51.406;6.856;2022-12-05T17:34:59;1.90;99.90
3713;DHT22;1872;51.406;6.856;2022-12-05T17:37:25;1.80;99.90
3713;DHT22;1872;51.406;6.856;2022-12-05T17:39:50;1.90;99.90
3713;DHT22;1872;51.406;6.856;2022-12-05T17:42:17;1.80;99.90
3713;DHT22;1872;51.406;6.856;2022-12-05T17:44:43;1.80;99.90
3713;DHT22;1872;51.406;6.856;2022-12-05T17:47:09;1.90;99.90
3713;DHT22;1872;51.406;6.856;2022-12-05T17:49:35;1.90;99.90
3713;DHT22;1872;51.406;6.856;2022-12-05T17:52:00;1.90;99.90
3713;DHT22;1872;51.406;6.856;2022-12-05T17:54:29;1.90;99.90
3713;DHT22;1872;51.406;6.856;2022-12-05T17:56:55;1.90;99.90
3713;DHT22;1872;51.406;6.856;2022-12-05T17:59:20;1.90;99.90
3713;DHT22;1872;51.406;6.856;2022-12-05T18:01:46;1.90;99.90
3713;DHT22;1872;51.406;6.856;2022-12-05T18:04:12;1.90;99.90
3713;DHT22;1872;51.406;6.856;2022-12-05T18:06:37;1.80;99.90
3713;DHT22;1872;51.406;6.856;2022-12-05T18:09:04;1.80;99.90
3713;DHT22;1872;51.406;6.856;2022-12-05T18:11:29;1.80;99.90
3713;DHT22;1872;51.406;6.856;2022-12-05T18:13:55;1.80;99.90
3713;DHT22;1872;51.406;6.856;2022-12-05T18:16:22;1.80;99.90
3713;DHT22;1872;51.406;6.856;2022-12-05T18:18:47;1.80;99.90
3713;DHT22;1872;51.406;6.856;2022-12-05T18:21:13;1.80;99.90
3713;DHT22;1872;51.406;6.856;2022-12-05T18:23:39;1.80;99.90
3713;DHT22;1872;51.406;6.856;2022-12-05T18:26:07;1.80;99.90
3713;DHT22;1872;51.406;6.856;2022-12-05T18:28:34;1.80;99.90
3713;DHT22;1872;51.406;6.856;2022-12-05T18:31:06;1.90;99.90
3713;DHT22;1872;51.406;6.856;2022-12-05T18:33:32;1.80;99.90
3713;DHT22;1872;51.406;6.856;2022-12-05T18:36:04;1.90;99.90
3713;DHT22;1872;51.406;6.856;2022-12-05T18:38:30;1.90;99.90
3713;DHT22;1872;51.406;6.856;2022-12-05T18:41:02;1.90;99.90
3713;DHT22;1872;51.406;6.856;2022-12-05T18:43:28;1.90;99.90
3713;DHT22;1872;51.406;6.856;2022-12-05T18:45:56;1.90;99.90
3713;DHT22;1872;51.406;6.856;2022-12-05T18:48:24;1.90;99.90
3713;DHT22;1872;51.406;6.856;2022-12-05T18:50:50;1.90;99.90
3713;DHT22;1872;51.406;6.856;2022-12-05T18:53:16;2.00;99.90
3713;DHT22;1872;51.406;6.856;2022-12-05T18:55:42;2.00;99.90
3713;DHT22;1872;51.406;6.856;2022-12-05T18:58:08;1.90;99.90
3713;DHT22;1872;51.406;6.856;2022-12-05T19:00:34;1.90;99.90
3713;DHT22;1872;51.406;6.856;2022-12-05T19:03:00;1.90;99.90
3713;DHT22;1872;51.406;6.856;2022-12-05T19:05:25;1.90;99.90
3713;DHT22;1872;51.406;6.856;2022-12-05T19:07:55;1.80;99.90
3713;DHT22;1872;51.406;6.856;2022-12-05T19:10:21;1.80;99.90
3713;DHT22;1872;51.406;6.856;2022-12-05T19:12:46;1.80;99.90
3713;DHT22;1872;51.406;6.856;2022-12-05T19:15:12;1.80;99.90
3713;DHT22;1872;51.406;6.856;2022-12-05T19:17:38;1.80;99.90
3713;DHT22;1872;51.406;6.856;2022-12-05T19:20:04;1.80;99.90
3713;DHT22;1872;51.406;6.856;2022-12-05T19:22:30;1.90;99.90
3713;DHT22;1872;51.406;6.856;2022-12-05T19:24:56;1.80;99.90
3713;DHT22;1872;51.406;6.856;2022-12-05T19:27:22;1.80;99.90
3713;DHT22;1872;51.406;6.856;2022-12-05T19:29:47;1.90;99.90
3713;DHT22;1872;51.406;6.856;2022-12-05T19:32:13;1.90;99.90
3713;DHT22;1872;51.406;6.856;2022-12-05T19:34:39;1.90;99.90
3713;DHT22;1872;51.406;6.856;2022-12-05T19:37:05;1.90;99.90